Tiempo atmosférico en la estación meteorológica de Fresno De Sayago, Zamora (804 m.)



Fecha
DESCASC
Temp. máxima en grados centígrados (hora)
DESCASC
Temp. mínima en grados centígrados (hora)
DESCASC
Temp. media en grados centígrados
DESCASC
Racha de viento máxima en m/sg (hora)
DESCASC
Velocidad máxima media en intervalos de 10 minutos(hora)
DESCASC
Precipitaciones diarias en mm
DESCASC
Precipitaciones de 00:00 a 06:00 en mm
DESCASC
Precipitaciones de 06:00 a 12:00 en mm
DESCASC
Precipitaciones de 12:00 a 18:00 en mm
DESCASC
Precipitaciones de 18:00 a 24:00 en mm
DESCASC
20-09-2018 29.8 (16:40) 9.9 (07:40) 19.8 13.61 (15:00) 8.33 (15:00) 0 0 0 0 0
19-09-2018 30.9 (18:20) 10.5 (07:20) 20.7 8.89 (13:40) 5 (19:50) 0 0 0 0 0
18-09-2018 29 (17:50) 14 (06:10) 21.5 11.11 (16:00) 6.67 (16:20) 0 0 0 0 0
17-09-2018 30.4 (15:00) 12.5 (07:10) 21.4 10.28 (17:20) 7.5 (17:10) 0 0 0 0 0
16-09-2018 30.7 (18:30) 12.9 (00:00) 21.8 10 (19:20) 6.39 (19:30) 0 0 0 0 0
15-09-2018 33 (17:10) 12.8 (00:00) 22.9 10 (09:40) 6.39 (09:40) 0 0 0 0 0
14-09-2018 32.4 (17:10) 12 (00:00) 22.2 10.28 (10:40) 6.11 (09:30) 0 0 0 0 0
13-09-2018 32.1 (17:30) 11.8 (00:00) 21.9 10.83 (15:20) 5 (04:50) 0 0 0 0 0
12-09-2018 31.1 (16:50) 11.9 (00:00) 21.5 9.17 (13:10) 4.72 (13:50) 0 0 0 0 0
11-09-2018 30.9 (18:20) 11.7 (00:00) 21.3 12.22 (16:50) 6.94 (10:00) 0 0 0 0 0
10-09-2018 29.1 (18:20) 11.8 (00:00) 20.5 9.44 (12:40) 6.39 (10:10) 0 0 0 0 0
09-09-2018 27.7 (18:20) 10.2 (00:00) 19 8.89 (21:00) 6.39 (21:00) 0 0 0 0 0
08-09-2018 29.3 (17:30) 11.9 (00:00) 20.6 15.56 (20:30) 8.89 (20:30) 4.8 0 0 0 4.8
07-09-2018 26.5 (15:50) 11.7 (00:00) 19.1 13.89 (10:40) 7.5 (10:40) 0 0 0 0 0
06-09-2018 25.9 (18:20) 13.1 (00:00) 19.5 11.67 (11:40) 6.67 (11:10) 0.2 0 0.2 0 0
05-09-2018 26.1 (16:00) 10.1 (00:00) 18.1 9.44 (18:20) 6.67 (18:20) 6.2 0 0 5.2 1
04-09-2018 27.8 (17:10) 11.2 (00:00) 19.5 10 (01:40) 7.5 (03:30) 0 0 0 0 0
03-09-2018 32.2 (17:30) 17.9 (00:00) 25.1 14.17 (00:30) 9.17 (00:20) 0.2 0.2 0 0 0
02-09-2018 36 (16:50) 15.4 (00:00) 25.7 11.67 (23:59) 7.78 (09:50) 0 0 0 0 0
01-09-2018 33.3 (18:10) 13.6 (00:00) 23.4 10.56 (09:40) 7.5 (09:30) 0 0 0 0 0
31-08-2018 32 (18:30) 12.9 (00:00) 22.4 9.44 (12:40) 7.22 (12:40) 0 0 0 0 0
30-08-2018 32 (17:00) 12.4 (00:00) 22.2 10.56 (04:40) 7.22 (03:40) 0 0 0 0 0
29-08-2018 31.3 (17:30) 11.6 (00:00) 21.4 8.33 (17:50) 4.44 (01:10) 0 0 0 0 0
28-08-2018 29.9 (17:00) 16.1 (00:00) 23 16.11 (15:40) 8.61 (13:40) 0 0 0 0 0
27-08-2018 34 (14:20) 13.4 (00:00) 23.7 14.17 (17:40) 8.89 (17:40) 0 0 0 0 0
26-08-2018 31.3 (17:40) 10.3 (00:00) 20.8 8.89 (09:20) 7.22 (09:20) 0 0 0 0 0
25-08-2018 29.1 (17:20) 10.2 (00:00) 19.7 8.61 (10:40) 5.28 (10:10) 0 0 0 0 0
24-08-2018 30.8 (17:50) 12.8 (00:00) 21.8 12.5 (19:40) 7.78 (00:40) 0 0 0 0 0

Gráficas

Temp. máximas Temp. mínimas Temp. medias Precipitaciones Rachas de viento máximas Velocidades máximas media en intervalos de 10 minutos

Datos horarios

Fecha y hora oficial Temperatura (ºC) Velocidad del viento (km/h) Dirección del viento Racha (km/h) Dirección de racha Precipitación (mm) Presión (hPa) Tendencia (hPa) Humedad (%)
2018-09-22 23:00:00 17.5 3 Sudeste 6 Norte 0 -- -- 30
2018-09-22 22:00:00 21 7 Norte 9 Norte 0 -- -- 24
2018-09-22 21:00:00 24.1 9 Norte 12 Oeste 0 -- -- 22
2018-09-22 20:00:00 28 9 Oeste 18 Oeste 0 -- -- 12
2018-09-22 19:00:00 30.7 9 Oeste 29 Oeste 0 -- -- 10
2018-09-22 18:00:00 30.9 11 Oeste 22 Oeste 0 -- -- 10
2018-09-22 17:00:00 30.6 11 Oeste 26 Oeste 0 -- -- 12
2018-09-22 16:00:00 29.8 13 Sudoeste 26 Oeste 0 -- -- 14
2018-09-22 15:00:00 29.9 9 Noroeste 18 Oeste 0 -- -- 15
2018-09-22 14:00:00 29.8 5 Nordeste 16 Este 0 -- -- 15
2018-09-22 13:00:00 26.5 5 Nordeste 19 Nordeste 0 -- -- 25
2018-09-22 12:00:00 22.7 10 Nordeste 21 Nordeste 0 -- -- 38
2018-09-22 11:00:00 18.8 16 Nordeste 26 Nordeste 0 -- -- 56
2018-09-22 10:00:00 14.7 14 Nordeste 23 Nordeste 0 -- -- 74
2018-09-22 09:00:00 12.3 15 Nordeste 21 Nordeste 0 -- -- 93
2018-09-22 08:00:00 10.9 14 Nordeste 17 Nordeste 0 -- -- 88
2018-09-22 07:00:00 11.6 12 Nordeste 17 Nordeste 0 -- -- 81
2018-09-22 06:00:00 11.9 16 Nordeste 31 Nordeste 0 -- -- 75
2018-09-22 05:00:00 13.1 15 Nordeste 18 Nordeste 0 -- -- 69
2018-09-22 04:00:00 12.8 7 Nordeste 11 Nordeste 0 -- -- 63
2018-09-22 03:00:00 13.1 11 Nordeste 13 Nordeste 0 -- -- 60
2018-09-22 02:00:00 12.3 0 Calma 3 Nordeste 0 -- -- 55
2018-09-22 01:00:00 12.8 0 Calma 3 Sudeste 0 -- -- 52
2018-09-22 00:00:00 13.7 0 Calma 3 Sur 0 -- -- 48
2018-09-21 23:00:00 14.9 0 Calma 6 Noroeste 0 -- -- 43
2018-09-21 22:00:00 17 3 Norte 10 Noroeste 0 -- -- 34
2018-09-21 21:00:00 20.6 8 Noroeste 10 Oeste 0 -- -- 25
2018-09-21 20:00:00 24.4 7 Noroeste 17 Noroeste 0 -- -- 16
2018-09-21 19:00:00 28 9 Noroeste 16 Noroeste 0 -- -- 10
2018-09-21 18:00:00 29.1 7 Oeste 20 Oeste 0 -- -- 11
2018-09-21 17:00:00 28.4 10 Noroeste 23 Oeste 0 -- -- 11
2018-09-21 16:00:00 27.7 7 Oeste 17 Noroeste 0 -- -- 16
2018-09-21 15:00:00 27.1 5 Sudoeste 20 Noroeste 0 -- -- 18
2018-09-21 14:00:00 24.8 10 Oeste 18 Noroeste 0 -- -- 24
2018-09-21 13:00:00 23 10 Oeste 26 Noroeste 0 -- -- 29
2018-09-21 12:00:00 21.6 13 Oeste 20 Oeste 0 -- -- 38
2018-09-21 11:00:00 19.2 11 Oeste 21 Oeste 0 -- -- 46
2018-09-21 10:00:00 16.2 8 Sudoeste 13 Sudoeste 0 -- -- 62
2018-09-21 09:00:00 11.9 9 Sudoeste 10 Sudoeste 0 -- -- 74
2018-09-21 08:00:00 10.3 3 Sudoeste 5 Sudoeste 0 -- -- 74
2018-09-21 07:00:00 10.7 3 Sudoeste 10 Sudoeste 0 -- -- 70
2018-09-21 06:00:00 11.7 6 Sur 12 Sur 0 -- -- 63
2018-09-21 05:00:00 12.4 8 Sudoeste 10 Sudoeste 0 -- -- 61
2018-09-21 04:00:00 12.3 6 Sudoeste 15 Oeste 0 -- -- 61
2018-09-21 03:00:00 13.8 6 Sudoeste 18 Sudoeste 0 -- -- 56
2018-09-21 02:00:00 15.6 8 Oeste 17 Oeste 0 -- -- 54
2018-09-21 01:00:00 17.3 15 Oeste 19 Oeste 0 -- -- 41
2018-09-21 00:00:00 17.4 3 Oeste 14 Oeste 0 -- -- 32
2018-09-20 23:00:00 19.7 12 Oeste 20 Noroeste 0 -- -- 26
2018-09-20 22:00:00 21.5 10 Noroeste 19 Noroeste 0 -- -- 28
2018-09-20 21:00:00 23.7 16 Oeste 24 Oeste 0 -- -- 30
2018-09-20 20:00:00 26.3 20 Oeste 32 Oeste 0 -- -- 26
2018-09-20 19:00:00 28.5 20 Oeste 40 Oeste 0 -- -- 21
2018-09-20 18:00:00 29.2 26 Oeste 45 Oeste 0 -- -- 21
2018-09-20 17:00:00 29.5 28 Oeste 42 Oeste 0 -- -- 20
2018-09-20 16:00:00 29.6 28 Oeste 43 Oeste 0 -- -- 19
2018-09-20 15:00:00 28.6 30 Oeste 49 Oeste 0 -- -- 20
2018-09-20 14:00:00 29.5 19 Oeste 36 Oeste 0 -- -- 20
2018-09-20 13:00:00 28.7 16 Sudoeste 26 Sudoeste 0 -- -- 19
2018-09-20 12:00:00 27.4 9 Sudoeste 15 Sur 0 -- -- 20
2018-09-20 11:00:00 24.3 9 Este 17 Este 0 -- -- 27
2018-09-20 10:00:00 21.5 5 Este 10 Este 0 -- -- 33
2018-09-20 09:00:00 12.5 4 Este 6 Sudeste 0 -- -- 58
2018-09-20 08:00:00 10.5 3 Sur 5 Sudeste 0 -- -- 63
2018-09-20 07:00:00 10.5 0 Calma 8 Sudeste 0 -- -- 60
2018-09-20 06:00:00 11 4 Sudeste 6 Sudeste 0 -- -- 60
2018-09-20 05:00:00 11.6 4 Sudeste 6 Sudeste 0 -- -- 57
2018-09-20 04:00:00 12.2 2 Sur 4 Sudeste 0 -- -- 53
2018-09-20 03:00:00 15 3 Sur 7 Sudeste 0 -- -- 45
2018-09-20 02:00:00 14.3 5 Sudeste 7 Sudeste 0 -- -- 45
2018-09-20 01:00:00 15.2 4 Sur 5 Sur 0 -- -- 42
2018-09-20 00:00:00 16.2 0 Calma 4 Sur 0 -- -- 39
2018-09-19 23:00:00 17.3 3 Sur 6 Noroeste 0 -- -- 34
2018-09-19 22:00:00 20.9 5 Noroeste 10 Noroeste 0 -- -- 26
2018-09-19 21:00:00 22.9 8 Noroeste 16 Noroeste 0 -- -- 20
2018-09-19 20:00:00 27.3 13 Oeste 25 Oeste 0 -- -- 15
2018-09-19 19:00:00 29.5 15 Oeste 28 Oeste 0 -- -- 13
2018-09-19 18:00:00 30.4 11 Oeste 31 Oeste 0 -- -- 12
2018-09-19 17:00:00 30.2 13 Noroeste 28 Oeste 0 -- -- 12
2018-09-19 16:00:00 30.2 12 Sudoeste 25 Sudoeste 0 -- -- 13
2018-09-19 15:00:00 29.5 8 Oeste 26 Oeste 0 -- -- 17
2018-09-19 14:00:00 28.3 11 Sudoeste 32 Sudoeste 0 -- -- 21
2018-09-19 13:00:00 28.5 5 Sur 13 Sudeste 0 -- -- 22
2018-09-19 12:00:00 25.5 6 Nordeste 15 Nordeste 0 -- -- 28
2018-09-19 11:00:00 20.8 11 Nordeste 15 Nordeste 0 -- -- 41
2018-09-19 10:00:00 17.9 13 Nordeste 15 Este 0 -- -- 53
2018-09-19 09:00:00 12.9 0 Calma 4 Sudeste 0 -- -- 68
2018-09-19 08:00:00 11.2 0 Calma 3 Sudeste 0 -- -- 75
2018-09-19 07:00:00 11.4 2 Sudeste 4 Sudeste 0 -- -- 73
2018-09-19 06:00:00 12.6 3 Sudeste 7 Sudeste 0 -- -- 69
2018-09-19 05:00:00 11.5 4 Sudeste 5 Sur 0 -- -- 67
2018-09-19 04:00:00 12.6 4 Sur 6 Sudeste 0 -- -- 64
2018-09-19 03:00:00 14.4 0 Calma 8 Sudeste 0 -- -- 58
2018-09-19 02:00:00 14.9 3 Sudeste 8 Sudeste 0 -- -- 53
2018-09-19 01:00:00 15.8 5 Sur 11 Sudeste 0 -- -- 49
2018-09-19 00:00:00 16.3 2 Sur 7 Noroeste 0 -- -- 47
2018-09-18 23:00:00 18.5 6 Noroeste 13 Noroeste 0 -- -- 40
2018-09-18 22:00:00 20.4 9 Noroeste 15 Noroeste 0 -- -- 33
2018-09-18 21:00:00 22.1 6 Noroeste 20 Noroeste 0 -- -- 28
2018-09-18 20:00:00 26.4 12 Oeste 24 Oeste 0 -- -- 19
2018-09-18 19:00:00 27.7 15 Noroeste 30 Oeste 0 -- -- 19
2018-09-18 18:00:00 28.4 21 Oeste 33 Oeste 0 -- -- 18
2018-09-18 17:00:00 28.4 19 Oeste 38 Oeste 0 -- -- 21
2018-09-18 16:00:00 28.4 19 Oeste 40 Oeste 0 -- -- 21
2018-09-18 15:00:00 28 15 Sudoeste 31 Sudoeste 0 -- -- 24
2018-09-18 14:00:00 27.8 15 Sudoeste 28 Sudoeste 0 -- -- 24
2018-09-18 13:00:00 26.6 12 Sudoeste 24 Sudoeste 0 -- -- 27
2018-09-18 12:00:00 25.2 10 Sudoeste 17 Sudoeste 0 -- -- 26
2018-09-18 11:00:00 22.6 7 Sudoeste 12 Sudoeste 0 -- -- 29
2018-09-18 10:00:00 19.2 8 Sudoeste 11 Sudoeste 0 -- -- 44
2018-09-18 09:00:00 15.5 4 Sudoeste 9 Sudoeste 0 -- -- 61
2018-09-18 08:00:00 14.1 7 Sudoeste 8 Sudoeste 0 -- -- 67
2018-09-18 07:00:00 14.2 3 Sur 7 Sur 0 -- -- 63
2018-09-18 06:00:00 14.3 4 Sur 8 Sur 0 -- -- 61
2018-09-18 05:00:00 15 4 Sur 8 Sur 0 -- -- 61
2018-09-18 04:00:00 16.1 5 Sudeste 9 Oeste 0 -- -- 56
2018-09-18 03:00:00 17.3 5 Sudoeste 9 Oeste 0 -- -- 53
2018-09-18 02:00:00 18 6 Sudoeste 18 Oeste 0 -- -- 53
2018-09-18 01:00:00 18.6 13 Oeste 17 Oeste 0 -- -- 51
2018-09-18 00:00:00 18.7 6 Sudoeste 10 Sudoeste 0 -- -- 51
2018-09-17 23:00:00 20 6 Oeste 12 Noroeste 0 -- -- 48
2018-09-17 22:00:00 21.5 6 Noroeste 15 Noroeste 0 -- -- 42
2018-09-17 21:00:00 21.9 6 Noroeste 20 Oeste 0 -- -- 41
2018-09-17 20:00:00 23.8 13 Noroeste 28 Oeste 0 -- -- 35
2018-09-17 19:00:00 25.8 21 Oeste 30 Noroeste 0 -- -- 28
2018-09-17 18:00:00 26.5 11 Noroeste 37 Oeste 0 -- -- 24
2018-09-17 17:00:00 27.1 22 Oeste 32 Oeste 0 -- -- 23
2018-09-17 16:00:00 28.5 12 Sudoeste 32 Oeste 0 -- -- 19
2018-09-17 15:00:00 30.4 14 Oeste 24 Oeste 0 -- -- 16
2018-09-17 14:00:00 28.1 15 Sudoeste 24 Sudoeste 0 -- -- 24
2018-09-17 13:00:00 29.1 12 Sudoeste 20 Sudoeste 0 -- -- 22
2018-09-17 12:00:00 27.5 6 Nordeste 14 Este 0 -- -- 26
2018-09-17 11:00:00 22.1 12 Nordeste 18 Nordeste 0 -- -- 38
2018-09-17 10:00:00 18.5 13 Nordeste 27 Nordeste 0 -- -- 47
2018-09-17 09:00:00 15.7 12 Este 15 Este 0 -- -- 57
2018-09-17 08:00:00 14.3 5 Este 13 Este 0 -- -- 62
2018-09-17 07:00:00 13.3 4 Sudeste 8 Sudeste 0 -- -- 68
2018-09-17 06:00:00 12.9 0 Calma 6 Oeste 0 -- -- 66
2018-09-17 05:00:00 15.2 3 Sur 7 Este 0 -- -- 60
2018-09-17 04:00:00 15.2 4 Sudeste 6 Sudeste 0 -- -- 60
2018-09-17 03:00:00 16.2 6 Sur 9 Sudeste 0 -- -- 55
2018-09-17 02:00:00 17.2 6 Sudeste 9 Sudeste 0 -- -- 51
2018-09-17 01:00:00 17.5 6 Sur 7 Sur 0 -- -- 50
2018-09-17 00:00:00 18 3 Sur 4 Sur 0 -- -- 49
2018-09-16 23:00:00 20 0 Calma 4 Sudoeste 0 -- -- 44
2018-09-16 22:00:00 21.9 5 Sudoeste 12 Sudoeste 0 -- -- 39
2018-09-16 21:00:00 22.7 8 Sudoeste 17 Sudoeste 0 -- -- 37
2018-09-16 20:00:00 25.3 13 Sudoeste 36 Sudoeste 0 -- -- 29
2018-09-16 19:00:00 29 9 Noroeste 21 Noroeste 0 -- -- 18
2018-09-16 18:00:00 30.5 4 Norte 22 Oeste 0 -- -- 18
2018-09-16 17:00:00 29.5 10 Noroeste 21 Noroeste 0 -- -- 19
2018-09-16 16:00:00 29.6 8 Noroeste 25 Oeste 0 -- -- 17
2018-09-16 15:00:00 30.2 12 Sudoeste 27 Oeste 0 -- -- 21
2018-09-16 14:00:00 29 15 Sudoeste 25 Sudoeste 0 -- -- 24
2018-09-16 13:00:00 27.8 14 Sudoeste 23 Oeste 0 -- -- 28
2018-09-16 12:00:00 25.6 15 Oeste 22 Sudoeste 0 -- -- 32
2018-09-16 11:00:00 23.8 13 Oeste 20 Oeste 0 -- -- 34
2018-09-16 10:00:00 20.3 5 Sudoeste 9 Sur 0 -- -- 48
2018-09-16 09:00:00 15.1 5 Sudoeste 10 Sur 0 -- -- 67
2018-09-16 08:00:00 14 8 Sur 10 Sur 0 -- -- 73
2018-09-16 07:00:00 12.9 7 Sudoeste 9 Sudoeste 0 -- -- 74
2018-09-16 06:00:00 13.8 5 Sudeste 8 Nordeste 0 -- -- 68
2018-09-16 05:00:00 15.4 5 Sur 7 Sur 0 -- -- 62
2018-09-16 04:00:00 16 5 Sur 7 Sur 0 -- -- 58
2018-09-16 03:00:00 17 5 Sudoeste 7 Sur 0 -- -- 57
2018-09-16 02:00:00 18.1 6 Sur 17 Sudoeste 0 -- -- 57
2018-09-16 01:00:00 20.9 6 Noroeste 24 Oeste 0 -- -- 40
2018-09-16 00:00:00 24 15 Oeste 22 Oeste 0 -- -- 30
2018-09-15 23:00:00 21.8 3 Sudoeste 10 Sudoeste 0 -- -- 35
2018-09-15 22:00:00 22.5 5 Sudoeste 8 Sudoeste 0 -- -- 33
2018-09-15 21:00:00 25.2 3 Oeste 10 Sur 0 -- -- 26
2018-09-15 20:00:00 29.1 8 Sur 17 Sur 0 -- -- 20
2018-09-15 19:00:00 30.3 6 Sur 11 Sudeste 0 -- -- 19
2018-09-15 18:00:00 28.6 9 Noroeste 19 Noroeste 0 -- -- 20
2018-09-15 17:00:00 32.4 5 Este 16 Este 0 -- -- 16
2018-09-15 16:00:00 31.1 5 Sudeste 15 Este 0 -- -- 19
2018-09-15 15:00:00 28.8 6 Nordeste 17 Nordeste 0 -- -- 26
2018-09-15 14:00:00 27.2 8 Nordeste 19 Este 0 -- -- 31
2018-09-15 13:00:00 24.2 13 Nordeste 27 Nordeste 0 -- -- 38
2018-09-15 12:00:00 21.1 15 Nordeste 21 Nordeste 0 -- -- 49
2018-09-15 11:00:00 18.3 13 Nordeste 28 Nordeste 0 -- -- 60
2018-09-15 10:00:00 15.6 22 Nordeste 36 Nordeste 0 -- -- 73
2018-09-15 09:00:00 13.5 17 Nordeste 24 Nordeste 0 -- -- 93
2018-09-15 08:00:00 13.1 15 Nordeste 29 Nordeste 0 -- -- 91
2018-09-15 07:00:00 13.8 21 Nordeste 34 Nordeste 0 -- -- 85
2018-09-15 06:00:00 14.1 20 Nordeste 27 Nordeste 0 -- -- 84
2018-09-15 05:00:00 14.4 12 Nordeste 21 Nordeste 0 -- -- 81
2018-09-15 04:00:00 15.6 15 Nordeste 24 Nordeste 0 -- -- 74
2018-09-15 03:00:00 16.7 17 Nordeste 23 Nordeste 0 -- -- 62
2018-09-15 02:00:00 19 13 Nordeste 23 Nordeste 0 -- -- 42
2018-09-15 01:00:00 19.8 6 Sudeste 12 Este 0 -- -- 38
2018-09-15 00:00:00 20.2 10 Este 13 Este 0 -- -- 36
2018-09-14 23:00:00 19.1 3 Este 7 Este 0 -- -- 40
2018-09-14 22:00:00 22.7 4 Nordeste 14 Este 0 -- -- 31
2018-09-14 21:00:00 22.9 7 Nordeste 13 Este 0 -- -- 28
2018-09-14 20:00:00 28.6 4 Norte 12 Noroeste 0 -- -- 17
2018-09-14 19:00:00 30.2 8 Nordeste 17 Noroeste 0 -- -- 16
2018-09-14 18:00:00 31.6 6 Oeste 18 Noroeste 0 -- -- 12
2018-09-14 17:00:00 30.7 8 Norte 26 Nordeste 0 -- -- 18
2018-09-14 16:00:00 31.6 6 Norte 15 Noroeste 0 -- -- 18
2018-09-14 15:00:00 30.3 6 Sudeste 19 Este 0 -- -- 21
2018-09-14 14:00:00 27.4 11 Nordeste 23 Nordeste 0 -- -- 27
2018-09-14 13:00:00 24.2 17 Nordeste 27 Nordeste 0 -- -- 36
2018-09-14 12:00:00 21.8 16 Nordeste 27 Este 0 -- -- 43
2018-09-14 11:00:00 18.6 19 Este 37 Nordeste 0 -- -- 56
2018-09-14 10:00:00 15.6 20 Nordeste 28 Nordeste 0 -- -- 70
2018-09-14 09:00:00 13.1 17 Nordeste 24 Nordeste 0 -- -- 84
2018-09-14 08:00:00 12.2 15 Nordeste 25 Nordeste 0 -- -- 82
2018-09-14 07:00:00 13.1 20 Nordeste 36 Nordeste 0 -- -- 76
2018-09-14 06:00:00 13.5 17 Nordeste 27 Nordeste 0 -- -- 70
2018-09-14 05:00:00 14.5 18 Nordeste 28 Nordeste 0 -- -- 62
2018-09-14 04:00:00 15.7 17 Nordeste 23 Nordeste 0 -- -- 55
2018-09-14 03:00:00 15.5 14 Nordeste 22 Nordeste 0 -- -- 50
2018-09-14 02:00:00 15.4 3 Sudeste 5 Sur 0 -- -- 53
2018-09-14 01:00:00 17.2 0 Calma 10 Noroeste 0 -- -- 49
2018-09-14 00:00:00 18.9 6 Nordeste 12 Nordeste 0 -- -- 41
2018-09-13 23:00:00 22 9 Norte 11 Norte 0 -- -- 34
2018-09-13 22:00:00 22.4 6 Norte 11 Norte 0 -- -- 32
2018-09-13 21:00:00 24.8 7 Norte 13 Noroeste 0 -- -- 28
2018-09-13 20:00:00 28.8 8 Noroeste 18 Noroeste 0 -- -- 21
2018-09-13 19:00:00 30.2 12 Norte 24 Noroeste 0 -- -- 20
2018-09-13 18:00:00 31.6 8 Sur 28 Sudoeste 0 -- -- 15
2018-09-13 17:00:00 30.9 10 Norte 23 Oeste 0 -- -- 18
2018-09-13 16:00:00 30.5 14 Noroeste 39 Norte 0 -- -- 22
2018-09-13 15:00:00 30.5 10 Noroeste 23 Norte 0 -- -- 22
2018-09-13 14:00:00 28.7 5 Noroeste 15 Este 0 -- -- 26
2018-09-13 13:00:00 27.6 5 Nordeste 15 Nordeste 0 -- -- 31
2018-09-13 12:00:00 24.7 6 Este 14 Este 0 -- -- 39
2018-09-13 11:00:00 20.2 11 Nordeste 19 Nordeste 0 -- -- 58
2018-09-13 10:00:00 17.3 14 Nordeste 19 Nordeste 0 -- -- 72
2018-09-13 09:00:00 14.1 9 Nordeste 14 Nordeste 0 -- -- 95
2018-09-13 08:00:00 12.1 3 Nordeste 8 Nordeste 0 -- -- 94
2018-09-13 07:00:00 13.3 5 Este 16 Nordeste 0 -- -- 82
2018-09-13 06:00:00 14.8 14 Nordeste 22 Nordeste 0 -- -- 74
2018-09-13 05:00:00 16.2 18 Nordeste 24 Nordeste 0 -- -- 66
2018-09-13 04:00:00 16.3 14 Nordeste 18 Nordeste 0 -- -- 59
2018-09-13 03:00:00 15.8 10 Nordeste 12 Nordeste 0 -- -- 57
2018-09-13 02:00:00 16.5 5 Norte 8 Norte 0 -- -- 55
2018-09-13 01:00:00 18.5 5 Norte 7 Noroeste 0 -- -- 49
2018-09-13 00:00:00 19.2 5 Noroeste 14 Oeste 0 -- -- 45
2018-09-12 23:00:00 20.4 7 Noroeste 18 Noroeste 0 -- -- 40
2018-09-12 22:00:00 22.4 6 Norte 8 Noroeste 0 -- -- 34
2018-09-12 21:00:00 24.2 5 Noroeste 12 Noroeste 0 -- -- 28
2018-09-12 20:00:00 28.7 10 Noroeste 22 Noroeste 0 -- -- 18
2018-09-12 19:00:00 30.2 12 Noroeste 22 Norte 0 -- -- 17
2018-09-12 18:00:00 30.4 11 Oeste 21 Oeste 0 -- -- 18
2018-09-12 17:00:00 30.8 14 Sudoeste 26 Oeste 0 -- -- 14
2018-09-12 16:00:00 30.3 11 Oeste 26 Oeste 0 -- -- 16
2018-09-12 15:00:00 29.5 12 Noroeste 28 Oeste 0 -- -- 19
2018-09-12 14:00:00 28.2 13 Oeste 33 Oeste 0 -- -- 23
2018-09-12 13:00:00 26.8 15 Oeste 27 Oeste 0 -- -- 26
2018-09-12 12:00:00 26.3 5 Este 14 Nordeste 0 -- -- 31
2018-09-12 11:00:00 22.7 7 Este 10 Este 0 -- -- 39
2018-09-12 10:00:00 18.4 9 Nordeste 13 Nordeste 0 -- -- 54
2018-09-12 09:00:00 14.3 6 Este 7 Este 0 -- -- 72
2018-09-12 08:00:00 12.6 5 Sudeste 18 Nordeste 0 -- -- 73
2018-09-12 07:00:00 12.3 13 Nordeste 21 Nordeste 0 -- -- 73
2018-09-12 06:00:00 13 12 Nordeste 18 Nordeste 0 -- -- 70
2018-09-12 05:00:00 12.4 13 Nordeste 18 Nordeste 0 -- -- 72
2018-09-12 04:00:00 14.3 12 Nordeste 18 Nordeste 0 -- -- 68
2018-09-12 03:00:00 15.4 4 Norte 14 Nordeste 0 -- -- 56
2018-09-12 02:00:00 14.5 5 Sudoeste 18 Sudoeste 0 -- -- 58
2018-09-12 01:00:00 16.4 6 Nordeste 9 Nordeste 0 -- -- 49
2018-09-12 00:00:00 15.9 9 Nordeste 17 Nordeste 0 -- -- 49
2018-09-11 23:00:00 18.8 14 Nordeste 18 Nordeste 0 -- -- 39
2018-09-11 22:00:00 20.2 5 Nordeste -- -- 0 -- -- 37
2018-09-11 21:00:00 22.2 10 Nordeste 17 Nordeste 0 -- -- 31
2018-09-11 20:00:00 27.7 11 Nordeste 24 Nordeste 0 -- -- 19
2018-09-11 19:00:00 28.8 13 Este 32 Norte 0 -- -- 16
2018-09-11 18:00:00 30.2 12 Nordeste 30 Nordeste 0 -- -- 14
2018-09-11 17:00:00 28.6 9 Este 44 Nordeste 0 -- -- 18
2018-09-11 16:00:00 29.2 16 Este 28 Nordeste 0 -- -- 22
2018-09-11 15:00:00 29.1 17 Este 27 Nordeste 0 -- -- 22
2018-09-11 14:00:00 27.9 13 Este 28 Nordeste 0 -- -- 27
2018-09-11 13:00:00 25.5 15 Nordeste 24 Este 0 -- -- 34
2018-09-11 12:00:00 22.9 18 Nordeste 37 Nordeste 0 -- -- 42
2018-09-11 11:00:00 20 19 Nordeste 27 Este 0 -- -- 53
2018-09-11 10:00:00 16.6 25 Nordeste 30 Nordeste 0 -- -- 66
2018-09-11 09:00:00 13.7 12 Nordeste 25 Nordeste 0 -- -- 80
2018-09-11 08:00:00 11.9 18 Nordeste 23 Nordeste 0 -- -- 83
2018-09-11 07:00:00 13 13 Nordeste 26 Nordeste 0 -- -- 79
2018-09-11 06:00:00 12.7 16 Nordeste 22 Nordeste 0 -- -- 76
2018-09-11 05:00:00 14.1 17 Nordeste 29 Nordeste 0 -- -- 68
2018-09-11 04:00:00 14.8 15 Nordeste 21 Nordeste 0 -- -- 63
2018-09-11 03:00:00 15.8 14 Nordeste 19 Nordeste 0 -- -- 58
2018-09-11 02:00:00 16.4 15 Nordeste 19 Nordeste 0 -- -- 56
2018-09-11 01:00:00 15.1 13 Nordeste 15 Nordeste 0 -- -- 57
2018-09-11 00:00:00 15.4 8 Nordeste 11 Nordeste 0 -- -- 55
2018-09-10 23:00:00 16.8 5 Nordeste 7 Nordeste 0 -- -- 51
2018-09-10 22:00:00 18.3 6 Nordeste 9 Nordeste 0 -- -- 44
2018-09-10 21:00:00 20.8 9 Nordeste 15 Nordeste 0 -- -- 35
2018-09-10 20:00:00 26.2 14 Nordeste 20 Este 0 -- -- 25
2018-09-10 19:00:00 27.7 8 Nordeste 22 Nordeste 0 -- -- 24
2018-09-10 18:00:00 28.8 9 Este 31 Nordeste 0 -- -- 22
2018-09-10 17:00:00 27.5 12 Nordeste 26 Nordeste 0 -- -- 24
2018-09-10 16:00:00 26.8 11 Nordeste 27 Nordeste 0 -- -- 26
2018-09-10 15:00:00 26.2 12 Este 32 Nordeste 0 -- -- 28
2018-09-10 14:00:00 24.7 14 Nordeste 29 Este 0 -- -- 34
2018-09-10 13:00:00 22.9 18 Nordeste 34 Nordeste 0 -- -- 40
2018-09-10 12:00:00 20.4 20 Nordeste 33 Nordeste 0 -- -- 62
2018-09-10 11:00:00 18.1 20 Nordeste 34 Nordeste 0 -- -- 73
2018-09-10 10:00:00 15.5 22 Nordeste 27 Nordeste 0 -- -- 86
2018-09-10 09:00:00 13.3 14 Nordeste 20 Nordeste 0 -- -- 97
2018-09-10 08:00:00 12.4 14 Nordeste 19 Nordeste 0 -- -- 98
2018-09-10 07:00:00 12.6 6 Nordeste 21 Nordeste 0 -- -- 95
2018-09-10 06:00:00 13 13 Nordeste 23 Nordeste 0 -- -- 93
2018-09-10 05:00:00 13.7 14 Nordeste 23 Nordeste 0 -- -- 84
2018-09-10 04:00:00 14 16 Nordeste 25 Nordeste 0 -- -- 77
2018-09-10 03:00:00 14.8 18 Nordeste 24 Nordeste 0 -- -- 70
2018-09-10 02:00:00 15.3 16 Nordeste 27 Nordeste 0 -- -- 64
2018-09-10 01:00:00 16.7 16 Nordeste 24 Nordeste 0 -- -- 58
2018-09-10 00:00:00 17.8 17 Nordeste 23 Nordeste 0 -- -- 54
2018-09-09 23:00:00 17.5 12 Nordeste 19 Nordeste 0 -- -- 54
2018-09-09 22:00:00 18.9 13 Nordeste 31 Norte 0 -- -- 47
2018-09-09 21:00:00 20.8 23 Norte 32 Nordeste 0 -- -- 40
2018-09-09 20:00:00 26.2 8 Norte 17 Oeste 0 -- -- 19
2018-09-09 19:00:00 27.1 9 Noroeste 19 Oeste 0 -- -- 18
2018-09-09 18:00:00 27.6 8 Noroeste 15 Noroeste 0 -- -- 19
2018-09-09 17:00:00 27.2 9 Noroeste 20 Noroeste 0 -- -- 21
2018-09-09 16:00:00 26.1 9 Noroeste 21 Noroeste 0 -- -- 22
2018-09-09 15:00:00 25.1 10 Noroeste 19 Oeste 0 -- -- 27
2018-09-09 14:00:00 24.4 9 Norte 16 Oeste 0 -- -- 26
2018-09-09 13:00:00 22.8 9 Noroeste 15 Oeste 0 -- -- 38
2018-09-09 12:00:00 20.5 5 Noroeste 16 Norte 0 -- -- 48
2018-09-09 11:00:00 17.5 8 Nordeste 13 Norte 0 -- -- 53
2018-09-09 10:00:00 15.1 2 Este 11 Nordeste 0 -- -- 60
2018-09-09 09:00:00 11.7 5 Sudoeste 8 Sur 0 -- -- 74
2018-09-09 08:00:00 10.3 4 Sudoeste 13 Oeste 0 -- -- 79
2018-09-09 07:00:00 11.1 7 Sudoeste 9 Sudoeste 0 -- -- 71
2018-09-09 06:00:00 11.9 4 Sudeste 13 Este 0 -- -- 64
2018-09-09 05:00:00 12.3 11 Este 14 Este 0 -- -- 66
2018-09-09 04:00:00 12.8 9 Nordeste 17 Nordeste 0 -- -- 65
2018-09-09 03:00:00 13.5 8 Nordeste 9 Nordeste 0 -- -- 63
2018-09-09 02:00:00 13.3 8 Este 14 Este 0 -- -- 65
2018-09-09 01:00:00 14.1 10 Nordeste 14 Nordeste 0 -- -- 69
2018-09-09 00:00:00 15.1 8 Sudeste 14 Este 0 -- -- 64
2018-09-08 23:00:00 15.6 9 Norte 21 Oeste 0 -- -- 67
2018-09-08 22:00:00 16.5 16 Sudoeste 35 Sudoeste 0.2 -- -- 55
2018-09-08 21:00:00 15.9 13 Noroeste 56 Sudoeste 4.6 -- -- 64
2018-09-08 20:00:00 21.1 15 Oeste 30 Oeste 0 -- -- 39
2018-09-08 19:00:00 24.5 13 Sudeste 19 Sudeste 0 -- -- 28
2018-09-08 18:00:00 26.1 15 Sudeste 28 Este 0 -- -- 20
2018-09-08 17:00:00 28.5 10 Sur 27 Sudeste 0 -- -- 19
2018-09-08 16:00:00 27.4 10 Sur 20 Sudeste 0 -- -- 19
2018-09-08 15:00:00 26.5 9 Sudeste 21 Este 0 -- -- 24
2018-09-08 14:00:00 24.9 10 Sudeste 17 Sudeste 0 -- -- 32
2018-09-08 13:00:00 25.4 5 Noroeste 13 Este 0 -- -- 33
2018-09-08 12:00:00 22.7 6 Nordeste 18 Nordeste 0 -- -- 41
2018-09-08 11:00:00 19.2 12 Este 21 Nordeste 0 -- -- 54
2018-09-08 10:00:00 15.9 17 Este 31 Nordeste 0 -- -- 67
2018-09-08 09:00:00 13.2 13 Este 21 Este 0 -- -- 80
2018-09-08 08:00:00 12.1 16 Nordeste 22 Nordeste 0 -- -- 82
2018-09-08 07:00:00 12.9 16 Nordeste 31 Nordeste 0 -- -- 79
2018-09-08 06:00:00 12.8 15 Nordeste 19 Nordeste 0 -- -- 80
2018-09-08 05:00:00 14.1 15 Nordeste 27 Nordeste 0 -- -- 71
2018-09-08 04:00:00 14.7 17 Nordeste 24 Nordeste 0 -- -- 67
2018-09-08 03:00:00 15.9 17 Nordeste 28 Este 0 -- -- 59
2018-09-08 02:00:00 16.7 15 Este 35 Nordeste 0 -- -- 55
2018-09-08 01:00:00 17.1 20 Nordeste 25 Nordeste 0 -- -- 52
2018-09-08 00:00:00 17.1 18 Nordeste 26 Este 0 -- -- 49
2018-09-07 23:00:00 17.8 17 Nordeste 24 Nordeste 0 -- -- 46
2018-09-07 22:00:00 17.4 13 Nordeste 20 Nordeste 0 -- -- 45
2018-09-07 21:00:00 21.1 12 Nordeste 19 Nordeste 0 -- -- 34
2018-09-07 20:00:00 23.4 15 Nordeste 26 Nordeste 0 -- -- 28
2018-09-07 19:00:00 25.9 18 Nordeste 28 Nordeste 0 -- -- 23
2018-09-07 18:00:00 26.1 15 Nordeste 32 Norte 0 -- -- 23
2018-09-07 17:00:00 26.1 15 Nordeste 26 Nordeste 0 -- -- 24
2018-09-07 16:00:00 26.3 13 Este 32 Nordeste 0 -- -- 26
2018-09-07 15:00:00 24.6 18 Nordeste 32 Este 0 -- -- 30
2018-09-07 14:00:00 23.2 20 Nordeste 35 Nordeste 0 -- -- 37
2018-09-07 13:00:00 21.5 22 Nordeste 32 Nordeste 0 -- -- 42
2018-09-07 12:00:00 19.6 23 Este 37 Nordeste 0 -- -- 49
2018-09-07 11:00:00 17 24 Nordeste 50 Nordeste 0 -- -- 59
2018-09-07 10:00:00 14.8 25 Nordeste 31 Nordeste 0 -- -- 69
2018-09-07 09:00:00 12.7 18 Nordeste 30 Nordeste 0 -- -- 82
2018-09-07 08:00:00 11.7 15 Nordeste 27 Nordeste 0 -- -- 86
2018-09-07 07:00:00 12 15 Nordeste 26 Nordeste 0 -- -- 83
2018-09-07 06:00:00 12.2 19 Nordeste 31 Nordeste 0 -- -- 80
2018-09-07 05:00:00 12.5 24 Nordeste 33 Nordeste 0 -- -- 76
2018-09-07 04:00:00 13 23 Nordeste 31 Nordeste 0 -- -- 73
2018-09-07 03:00:00 13.4 21 Nordeste 34 Nordeste 0 -- -- 74
2018-09-07 02:00:00 14.6 25 Nordeste 33 Nordeste 0 -- -- 69
2018-09-07 01:00:00 15.1 22 Nordeste 32 Nordeste 0 -- -- 65
2018-09-07 00:00:00 16.1 20 Nordeste 32 Nordeste 0 -- -- 60
2018-09-06 23:00:00 17.3 19 Nordeste 26 Nordeste 0 -- -- 51
2018-09-06 22:00:00 18.9 18 Nordeste 28 Nordeste 0 -- -- 44
2018-09-06 21:00:00 20.4 16 Nordeste 27 Nordeste 0 -- -- 39
2018-09-06 20:00:00 23.5 14 Este 23 Nordeste 0 -- -- 29
2018-09-06 19:00:00 23.7 12 Nordeste 23 Nordeste 0 -- -- 29
2018-09-06 18:00:00 25.2 14 Nordeste 27 Nordeste 0 -- -- 25
2018-09-06 17:00:00 25.3 12 Este 26 Este 0 -- -- 27
2018-09-06 16:00:00 23.1 18 Nordeste 30 Este 0 -- -- 35
2018-09-06 15:00:00 23 17 Nordeste 32 Nordeste 0 -- -- 38
2018-09-06 14:00:00 21.5 18 Nordeste 32 Nordeste 0 -- -- 44
2018-09-06 13:00:00 19.6 20 Nordeste 30 Este 0 -- -- 56
2018-09-06 12:00:00 17.7 23 Nordeste 42 Nordeste 0 -- -- 66
2018-09-06 11:00:00 16.3 22 Nordeste 30 Nordeste 0 -- -- 73
2018-09-06 10:00:00 14.1 17 Nordeste 23 Nordeste 0.2 -- -- 89
2018-09-06 09:00:00 13.3 15 Nordeste 21 Nordeste 0 -- -- 95
2018-09-06 08:00:00 13.1 12 Nordeste 24 Nordeste 0 -- -- 94
2018-09-06 07:00:00 13.4 19 Nordeste 26 Nordeste 0 -- -- 93
2018-09-06 06:00:00 13.9 17 Nordeste 28 Nordeste 0 -- -- 91
2018-09-06 05:00:00 14.4 17 Nordeste 26 Nordeste 0 -- -- 91
2018-09-06 04:00:00 14.7 19 Nordeste 29 Nordeste 0 -- -- 87
2018-09-06 03:00:00 14.8 13 Nordeste 19 Nordeste 0 -- -- 87
2018-09-06 02:00:00 15.2 11 Nordeste 15 Nordeste 0 -- -- 81
2018-09-06 01:00:00 15.8 5 Nordeste 7 Nordeste 0 -- -- 80
2018-09-06 00:00:00 15.6 0 Calma 9 Nordeste 0 -- -- 80
2018-09-05 23:00:00 15.8 3 Nordeste 9 Oeste 0 -- -- 79
2018-09-05 22:00:00 15.9 8 Norte 19 Nordeste 0.2 -- -- 73
2018-09-05 21:00:00 16.2 9 Norte 17 Oeste 0 -- -- 76
2018-09-05 20:00:00 16 6 Noroeste 22 Noroeste 0.6 -- -- 74
2018-09-05 19:00:00 16.1 19 Oeste 34 Oeste 0.2 -- -- 63
2018-09-05 18:00:00 16.3 5 Noroeste 20 Oeste 0.6 -- -- 72
2018-09-05 17:00:00 16.4 13 Sur 28 Sudoeste 4.6 -- -- 90
2018-09-05 16:00:00 26.1 14 Sudoeste 33 Norte 0 -- -- 28
2018-09-05 15:00:00 23.7 8 Noroeste 22 Noroeste 0 -- -- 34
2018-09-05 14:00:00 23 11 Norte 18 Norte 0 -- -- 37
2018-09-05 13:00:00 21.3 9 Nordeste 18 Norte 0 -- -- 45
2018-09-05 12:00:00 19.4 9 Nordeste 22 Nordeste 0 -- -- 53
2018-09-05 11:00:00 17.5 14 Nordeste 20 Nordeste 0 -- -- 58
2018-09-05 10:00:00 16.2 8 Nordeste 13 Nordeste 0 -- -- 64
2018-09-05 09:00:00 13.3 3 Norte 7 Noroeste 0 -- -- 77
2018-09-05 08:00:00 10.6 0 Calma 11 Nordeste 0 -- -- 87
2018-09-05 07:00:00 10.9 9 Nordeste 11 Nordeste 0 -- -- 82
2018-09-05 06:00:00 12.8 4 Nordeste 18 Nordeste 0 -- -- 77
2018-09-05 05:00:00 14.1 10 Nordeste 15 Nordeste 0 -- -- 76
2018-09-05 04:00:00 14.3 7 Nordeste 15 Norte 0 -- -- 75
2018-09-05 03:00:00 15.4 3 Sudoeste 8 Sudoeste 0 -- -- 63
2018-09-05 02:00:00 15 4 Sudoeste 5 Sudoeste 0 -- -- 61
2018-09-05 01:00:00 15.6 2 Sur 9 Sudoeste 0 -- -- 62
2018-09-05 00:00:00 17.4 4 Sur 6 Sudoeste 0 -- -- 54
2018-09-04 23:00:00 19.3 5 Sudeste 22 Sudeste 0 -- -- 51
2018-09-04 22:00:00 21.9 12 Sudeste 21 Sudeste 0 -- -- 39
2018-09-04 21:00:00 22.8 10 Oeste 13 Oeste 0 -- -- 35
2018-09-04 20:00:00 25.3 4 Noroeste 10 Noroeste 0 -- -- 29
2018-09-04 19:00:00 25.3 5 Norte 18 Norte 0 -- -- 29
2018-09-04 18:00:00 26.6 9 Norte 19 Norte 0 -- -- 27
2018-09-04 17:00:00 27.6 8 Norte 22 Norte 0 -- -- 26
2018-09-04 16:00:00 25.6 11 Noroeste 22 Oeste 0 -- -- 30
2018-09-04 15:00:00 26.7 13 Noroeste 27 Noroeste 0 -- -- 29
2018-09-04 14:00:00 24.6 7 Oeste 23 Oeste 0 -- -- 33
2018-09-04 13:00:00 23 10 Nordeste 18 Nordeste 0 -- -- 34
2018-09-04 12:00:00 20.7 10 Nordeste 17 Nordeste 0 -- -- 36
2018-09-04 11:00:00 18 12 Nordeste 21 Nordeste 0 -- -- 42
2018-09-04 10:00:00 15.8 15 Nordeste 27 Nordeste 0 -- -- 49
2018-09-04 09:00:00 13.1 15 Nordeste 22 Nordeste 0 -- -- 54
2018-09-04 08:00:00 11.3 11 Nordeste 19 Nordeste 0 -- -- 61
2018-09-04 07:00:00 12.7 14 Nordeste 21 Nordeste 0 -- -- 55
2018-09-04 06:00:00 13.5 18 Este 27 Nordeste 0 -- -- 52
2018-09-04 05:00:00 13.9 22 Nordeste 33 Este 0 -- -- 49
2018-09-04 04:00:00 14.7 26 Nordeste 34 Este 0 -- -- 45
2018-09-04 03:00:00 15.4 23 Nordeste 35 Nordeste 0 -- -- 56
2018-09-04 02:00:00 16.6 26 Este 36 Este 0 -- -- 56
2018-09-04 01:00:00 17.5 22 Nordeste 28 Nordeste 0 -- -- 55
2018-09-04 00:00:00 17.9 12 Nordeste 22 Nordeste 0 -- -- 54
2018-09-03 23:00:00 19.9 13 Nordeste 18 Nordeste 0 -- -- 42
2018-09-03 22:00:00 20.8 12 Oeste 14 Oeste 0 -- -- 43
2018-09-03 21:00:00 20.9 9 Noroeste 25 Noroeste 0 -- -- 43
2018-09-03 20:00:00 21.8 16 Noroeste 37 Sudoeste 0 -- -- 46
2018-09-03 19:00:00 27.4 8 Sur 28 Sudoeste 0 -- -- 23
2018-09-03 18:00:00 29.6 12 Este 24 Este 0 -- -- 20
2018-09-03 17:00:00 30.3 13 Nordeste 32 Este 0 -- -- 21
2018-09-03 16:00:00 28.2 15 Este 28 Este 0 -- -- 27
2018-09-03 15:00:00 30.2 10 Este 28 Este 0 -- -- 23
2018-09-03 14:00:00 28 17 Este 31 Este 0 -- -- 27
2018-09-03 13:00:00 25.7 20 Este 30 Nordeste 0 -- -- 32
2018-09-03 12:00:00 23.8 23 Nordeste 30 Este 0 -- -- 40
2018-09-03 11:00:00 21.7 16 Nordeste 24 Nordeste 0 -- -- 45
2018-09-03 10:00:00 20.2 17 Nordeste 30 Norte 0 -- -- 52
2018-09-03 09:00:00 18.9 20 Nordeste 28 Norte 0 -- -- 55
2018-09-03 08:00:00 18.2 11 Norte 18 Oeste 0 -- -- 56
2018-09-03 07:00:00 18.3 9 Sudoeste 19 Sudoeste 0 -- -- 54
2018-09-03 06:00:00 20.3 11 Norte 25 Norte 0 -- -- 44
2018-09-03 05:00:00 19.6 5 Sudeste 22 Este 0 -- -- 49
2018-09-03 04:00:00 22.4 19 Este 27 Este 0 -- -- 34
2018-09-03 03:00:00 21.6 20 Este 46 Sudeste 0.2 -- -- 41
2018-09-03 02:00:00 22.3 16 Norte 28 Norte 0 -- -- 37
2018-09-03 01:00:00 22.8 24 Nordeste 51 Sur 0 -- -- 37
2018-09-03 00:00:00 25.2 24 Sudoeste 42 Sudoeste 0 -- -- 29
2018-09-02 23:00:00 22.5 4 Sur 6 Sur 0 -- -- 26
2018-09-02 22:00:00 24.4 5 Sudeste 9 Oeste 0 -- -- 22
2018-09-02 21:00:00 27.8 8 Noroeste 29 Oeste 0 -- -- 16
2018-09-02 20:00:00 29.7 8 Noroeste 40 Oeste 0 -- -- 13
2018-09-02 19:00:00 32.5 8 Sudoeste 22 Oeste 0 -- -- 8
2018-09-02 18:00:00 34.9 7 Sur 21 Sudoeste 0 -- -- 6
2018-09-02 17:00:00 35.4 9 Oeste 27 Sudoeste 0 -- -- 5
2018-09-02 16:00:00 34.5 4 Oeste 28 Sudoeste 0 -- -- 9
2018-09-02 15:00:00 32.9 13 Noroeste 23 Oeste 0 -- -- 15
2018-09-02 14:00:00 32.4 10 Sudoeste 18 Sur 0 -- -- 16
2018-09-02 13:00:00 31 8 Este 22 Este 0 -- -- 20
2018-09-02 12:00:00 26.4 13 Este 21 Este 0 -- -- 30
2018-09-02 11:00:00 22.2 19 Este 31 Nordeste 0 -- -- 42
2018-09-02 10:00:00 19.4 26 Nordeste 38 Nordeste 0 -- -- 51
2018-09-02 09:00:00 16.2 26 Nordeste 36 Nordeste 0 -- -- 64
2018-09-02 08:00:00 15.5 24 Nordeste 30 Nordeste 0 -- -- 66
2018-09-02 07:00:00 15.8 20 Nordeste 30 Nordeste 0 -- -- 62
2018-09-02 06:00:00 16.1 17 Nordeste 24 Nordeste 0 -- -- 57
2018-09-02 05:00:00 16.3 12 Nordeste 17 Nordeste 0 -- -- 49
2018-09-02 04:00:00 17.7 13 Nordeste 21 Nordeste 0 -- -- 46
2018-09-02 03:00:00 17 14 Nordeste 19 Nordeste 0 -- -- 45
2018-09-02 02:00:00 17.9 15 Este 18 Este 0 -- -- 41
2018-09-02 01:00:00 18.1 12 Este 16 Nordeste 0 -- -- 41
2018-09-02 00:00:00 18.2 12 Nordeste 14 Nordeste 0 -- -- 40
2018-09-01 23:00:00 19.8 12 Nordeste 19 Nordeste 0 -- -- 34
2018-09-01 22:00:00 21 10 Nordeste 14 Nordeste 0 -- -- 28
2018-09-01 21:00:00 25.9 12 Nordeste 18 Nordeste 0 -- -- 20
2018-09-01 20:00:00 30.8 13 Nordeste 16 Nordeste 0 -- -- 14
2018-09-01 19:00:00 32.7 10 Nordeste 21 Este 0 -- -- 13
2018-09-01 18:00:00 33 4 Noroeste 26 Nordeste 0 -- -- 13
2018-09-01 17:00:00 31.9 9 Nordeste 26 Nordeste 0 -- -- 15
2018-09-01 16:00:00 31.1 15 Este 31 Nordeste 0 -- -- 18
2018-09-01 15:00:00 30.6 18 Este 32 Este 0 -- -- 21
2018-09-01 14:00:00 28.5 21 Este 30 Nordeste 0 -- -- 26
2018-09-01 13:00:00 26.7 18 Nordeste 26 Nordeste 0 -- -- 31
2018-09-01 12:00:00 23.8 17 Este 35 Este 0 -- -- 39
2018-09-01 11:00:00 20.3 24 Nordeste 32 Nordeste 0 -- -- 50
2018-09-01 10:00:00 17.3 24 Nordeste 38 Nordeste 0 -- -- 62
2018-09-01 09:00:00 14.9 24 Nordeste 36 Nordeste 0 -- -- 74
2018-09-01 08:00:00 13.7 24 Nordeste 32 Nordeste 0 -- -- 79
2018-09-01 07:00:00 13.9 23 Nordeste 32 Nordeste 0 -- -- 76
2018-09-01 06:00:00 14.8 22 Nordeste 36 Nordeste 0 -- -- 71
2018-09-01 05:00:00 15.7 21 Nordeste 28 Nordeste 0 -- -- 64
2018-09-01 04:00:00 17.2 24 Nordeste 35 Nordeste 0 -- -- 56
2018-09-01 03:00:00 18.1 22 Nordeste 28 Nordeste 0 -- -- 50
2018-09-01 02:00:00 18 20 Nordeste 27 Este 0 -- -- 46
2018-09-01 01:00:00 17.2 17 Nordeste 20 Nordeste 0 -- -- 40
2018-09-01 00:00:00 17.7 15 Nordeste 19 Nordeste 0 -- -- 35
2018-08-31 23:00:00 18.7 12 Nordeste 18 Este 0 -- -- 32
2018-08-31 22:00:00 20.4 10 Este 15 Nordeste 0 -- -- 29
2018-08-31 21:00:00 24.1 10 Nordeste 21 Nordeste 0 -- -- 22
2018-08-31 20:00:00 28.9 14 Nordeste 31 Este 0 -- -- 16
2018-08-31 19:00:00 30.7 13 Nordeste 26 Nordeste 0 -- -- 14
2018-08-31 18:00:00 30.9 10 Norte 21 Nordeste 0 -- -- 13
2018-08-31 17:00:00 31.2 12 Este 27 Norte 0 -- -- 14
2018-08-31 16:00:00 30.3 11 Este 22 Nordeste 0 -- -- 15
2018-08-31 15:00:00 28.6 15 Nordeste 29 Este 0 -- -- 18
2018-08-31 14:00:00 27.6 18 Nordeste 31 Este 0 -- -- 18
2018-08-31 13:00:00 25.2 22 Este 34 Nordeste 0 -- -- 23
2018-08-31 12:00:00 22.5 23 Nordeste 32 Este 0 -- -- 33
2018-08-31 11:00:00 19.9 18 Este 27 Nordeste 0 -- -- 44
2018-08-31 10:00:00 16.4 22 Nordeste 30 Nordeste 0 -- -- 59
2018-08-31 09:00:00 13.9 17 Este 33 Nordeste 0 -- -- 72
2018-08-31 08:00:00 12.9 22 Nordeste 30 Nordeste 0 -- -- 76
2018-08-31 07:00:00 13.4 17 Nordeste 24 Nordeste 0 -- -- 76
2018-08-31 06:00:00 13.8 18 Nordeste 30 Nordeste 0 -- -- 76
2018-08-31 05:00:00 14.3 20 Nordeste 25 Nordeste 0 -- -- 76
2018-08-31 04:00:00 15 18 Nordeste 28 Nordeste 0 -- -- 74
2018-08-31 03:00:00 15.7 17 Nordeste 29 Nordeste 0 -- -- 70
2018-08-31 02:00:00 17.3 19 Nordeste 32 Nordeste 0 -- -- 61
2018-08-31 01:00:00 20.9 15 Norte 26 Norte 0 -- -- 35
2018-08-31 00:00:00 21.1 7 Norte 10 Norte 0 -- -- 32
2018-08-30 23:00:00 21.5 5 Noroeste 11 Nordeste 0 -- -- 32
2018-08-30 22:00:00 21.4 10 Nordeste 13 Nordeste 0 -- -- 31
2018-08-30 21:00:00 25.5 9 Noroeste 12 Oeste 0 -- -- 23
2018-08-30 20:00:00 29.3 8 Oeste 17 Oeste 0 -- -- 16
2018-08-30 19:00:00 30.9 9 Oeste 33 Norte 0 -- -- 13
2018-08-30 18:00:00 31.6 6 Noroeste 23 Nordeste 0 -- -- 16
2018-08-30 17:00:00 32 4 Sudeste 30 Norte 0 -- -- 15
2018-08-30 16:00:00 31.7 6 Este 24 Norte 0 -- -- 17
2018-08-30 15:00:00 29.1 8 Nordeste 22 Este 0 -- -- 24
2018-08-30 14:00:00 26.5 11 Nordeste 25 Este 0 -- -- 32
2018-08-30 13:00:00 23.8 15 Nordeste 25 Nordeste 0 -- -- 40
2018-08-30 12:00:00 21 17 Nordeste 37 Nordeste 0 -- -- 48
2018-08-30 11:00:00 18.7 19 Este 35 Nordeste 0 -- -- 55
2018-08-30 10:00:00 15.9 24 Nordeste 30 Nordeste 0 -- -- 66
2018-08-30 09:00:00 13.9 19 Nordeste 25 Nordeste 0 -- -- 78
2018-08-30 08:00:00 12.4 12 Nordeste 23 Nordeste 0 -- -- 84
2018-08-30 07:00:00 13.1 15 Nordeste 26 Nordeste 0 -- -- 82
2018-08-30 06:00:00 13.7 17 Nordeste 30 Nordeste 0 -- -- 79
2018-08-30 05:00:00 14.4 21 Nordeste 38 Nordeste 0 -- -- 77
2018-08-30 04:00:00 15.1 26 Nordeste 34 Nordeste 0 -- -- 74
2018-08-30 03:00:00 15.9 19 Nordeste 31 Nordeste 0 -- -- 71
2018-08-30 02:00:00 17.1 18 Nordeste 28 Nordeste 0 -- -- 66
2018-08-30 01:00:00 18.6 17 Nordeste 27 Nordeste 0 -- -- 57
2018-08-30 00:00:00 18.2 8 Nordeste 11 Nordeste 0 -- -- 54
2018-08-29 23:00:00 20.4 7 Noroeste 12 Noroeste 0 -- -- 45
2018-08-29 22:00:00 22.8 8 Noroeste 14 Noroeste 0 -- -- 32
2018-08-29 21:00:00 25 7 Norte 12 Nordeste 0 -- -- 26
2018-08-29 20:00:00 28 9 Nordeste 18 Nordeste 0 -- -- 20
2018-08-29 19:00:00 27.4 8 Nordeste 21 Nordeste 0 -- -- 22
2018-08-29 18:00:00 30.4 9 Nordeste 30 Noroeste 0 -- -- 18
2018-08-29 17:00:00 28.9 9 Nordeste 20 Nordeste 0 -- -- 22
2018-08-29 16:00:00 27.9 15 Nordeste 24 Nordeste 0 -- -- 25
2018-08-29 15:00:00 28.4 8 Nordeste 23 Nordeste 0 -- -- 26
2018-08-29 14:00:00 27.1 11 Nordeste 27 Nordeste 0 -- -- 30
2018-08-29 13:00:00 25.1 12 Nordeste 23 Este 0 -- -- 35
2018-08-29 12:00:00 22.3 14 Este 24 Este 0 -- -- 43
2018-08-29 11:00:00 19.7 13 Nordeste 21 Norte 0 -- -- 66
2018-08-29 10:00:00 16.7 7 Noroeste 13 Noroeste 0 -- -- 89
2018-08-29 09:00:00 13.3 0 Calma 5 Oeste 0 -- -- 99
2018-08-29 08:00:00 12.4 5 Oeste 6 Oeste 0 -- -- 100
2018-08-29 07:00:00 11.6 0 Calma 6 Sudoeste 0 -- -- 99
2018-08-29 06:00:00 12.6 6 Sudoeste 8 Sudoeste 0 -- -- 98
2018-08-29 05:00:00 13.1 4 Sudoeste 9 Sudoeste 0 -- -- 92
2018-08-29 04:00:00 14.6 5 Sudoeste 10 Oeste 0 -- -- 83
2018-08-29 03:00:00 15.4 10 Sudoeste 16 Oeste 0 -- -- 78
2018-08-29 02:00:00 16.5 9 Oeste 21 Oeste 0 -- -- 72
2018-08-29 01:00:00 17.3 16 Oeste 19 Oeste 0 -- -- 67
2018-08-29 00:00:00 18 7 Oeste 13 Oeste 0 -- -- 61
2018-08-28 23:00:00 18.8 8 Noroeste 17 Oeste 0 -- -- 57
2018-08-28 22:00:00 20.3 10 Oeste 15 Oeste 0 -- -- 44
2018-08-28 21:00:00 21 9 Oeste 36 Noroeste 0 -- -- 49
2018-08-28 20:00:00 23.3 30 Oeste 52 Oeste 0 -- -- 40
2018-08-28 19:00:00 28.4 23 Oeste 42 Sudoeste 0 -- -- 20
2018-08-28 18:00:00 29 22 Oeste 47 Oeste 0 -- -- 21
2018-08-28 17:00:00 29.9 25 Oeste 46 Oeste 0 -- -- 19
2018-08-28 16:00:00 28.4 26 Oeste 58 Sudoeste 0 -- -- 22
2018-08-28 15:00:00 29.2 28 Sudoeste 51 Sudoeste 0 -- -- 21
2018-08-28 14:00:00 28.6 28 Sudoeste 46 Sudoeste 0 -- -- 22
2018-08-28 13:00:00 26.8 30 Sudoeste 43 Sudoeste 0 -- -- 27
2018-08-28 12:00:00 25.6 27 Sur 37 Sur 0 -- -- 31
2018-08-28 11:00:00 24 24 Sudoeste 36 Sur 0 -- -- 39
2018-08-28 10:00:00 22.6 15 Sudoeste 25 Sur 0 -- -- 44
2018-08-28 09:00:00 19.3 4 Sudoeste 9 Sudoeste 0 -- -- 47
2018-08-28 08:00:00 16.9 0 Calma 12 Sudeste 0 -- -- 47
2018-08-28 07:00:00 18.3 9 Sudeste 13 Sur 0 -- -- 44
2018-08-28 06:00:00 19.6 10 Sur 14 Sur 0 -- -- 36
2018-08-28 05:00:00 19.1 6 Sudeste 11 Sudoeste 0 -- -- 30
2018-08-28 04:00:00 18.4 3 Sudeste 21 Noroeste 0 -- -- 32
2018-08-28 03:00:00 20.6 11 Este 20 Este 0 -- -- 26
2018-08-28 02:00:00 19.8 8 Nordeste 10 Nordeste 0 -- -- 28
2018-08-28 01:00:00 17.9 6 Nordeste 9 Nordeste 0 -- -- 32
2018-08-28 00:00:00 20.9 2 Sudoeste 8 Sudoeste 0 -- -- 26
2018-08-27 23:00:00 22.9 4 Sudoeste 18 Sudeste 0 -- -- 22
2018-08-27 22:00:00 24 6 Sur 13 Sudeste 0 -- -- 20
2018-08-27 21:00:00 27.2 2 Sur 15 Oeste 0 -- -- 16
2018-08-27 20:00:00 29.4 6 Sur 28 Oeste 0 -- -- 13
2018-08-27 19:00:00 29.6 19 Oeste 33 Oeste 0 -- -- 11
2018-08-27 18:00:00 30.2 23 Sudoeste 51 Sur 0 -- -- 11
2018-08-27 17:00:00 31.8 25 Sudoeste 37 Sudoeste 0 -- -- 8
2018-08-27 16:00:00 32.9 18 Sudoeste 36 Sudoeste 0 -- -- 5
2018-08-27 15:00:00 33 16 Sudoeste 30 Sudoeste 0 -- -- 5
2018-08-27 14:00:00 31.7 10 Norte 22 Nordeste 0 -- -- 15
2018-08-27 13:00:00 29.2 13 Nordeste 22 Nordeste 0 -- -- 22
2018-08-27 12:00:00 25.6 13 Nordeste 25 Nordeste 0 -- -- 29
2018-08-27 11:00:00 21.9 17 Nordeste 28 Nordeste 0 -- -- 40
2018-08-27 10:00:00 18.4 23 Nordeste 37 Este 0 -- -- 51
2018-08-27 09:00:00 15.9 20 Nordeste 27 Nordeste 0 -- -- 63
2018-08-27 08:00:00 13.8 18 Nordeste 26 Nordeste 0 -- -- 68
2018-08-27 07:00:00 14.4 16 Nordeste 19 Nordeste 0 -- -- 61
2018-08-27 06:00:00 14.4 11 Nordeste 22 Nordeste 0 -- -- 57
2018-08-27 05:00:00 15.6 14 Nordeste 22 Nordeste 0 -- -- 49
2018-08-27 04:00:00 15.2 13 Nordeste 16 Nordeste 0 -- -- 45
2018-08-27 03:00:00 14.9 6 Nordeste 7 Nordeste 0 -- -- 46
2018-08-27 02:00:00 15 0 Calma 5 Sudeste 0 -- -- 45
2018-08-27 01:00:00 16.5 5 Sudeste 7 Sudeste 0 -- -- 39
2018-08-27 00:00:00 18.1 0 Calma 8 Noroeste 0 -- -- 35
2018-08-26 23:00:00 22.3 7 Noroeste 9 Noroeste 0 -- -- 25
2018-08-26 22:00:00 23.6 5 Noroeste 9 Noroeste 0 -- -- 23
2018-08-26 21:00:00 26.2 8 Noroeste 19 Oeste 0 -- -- 19
2018-08-26 20:00:00 29.7 15 Oeste 28 Oeste 0 -- -- 14
2018-08-26 19:00:00 30.6 15 Oeste 27 Oeste 0 -- -- 13
2018-08-26 18:00:00 30.8 13 Oeste 24 Oeste 0 -- -- 14
2018-08-26 17:00:00 30.5 11 Oeste 31 Sudoeste 0 -- -- 14
2018-08-26 16:00:00 30.2 11 Oeste 28 Oeste 0 -- -- 14
2018-08-26 15:00:00 28.8 10 Sudoeste 20 Sudoeste 0 -- -- 17
2018-08-26 14:00:00 27.1 8 Sudoeste 19 Este 0 -- -- 19
2018-08-26 13:00:00 24.9 13 Nordeste 22 Nordeste 0 -- -- 26
2018-08-26 12:00:00 21.2 15 Nordeste 28 Nordeste 0 -- -- 35
2018-08-26 11:00:00 18.2 14 Este 25 Nordeste 0 -- -- 43
2018-08-26 10:00:00 15.4 18 Nordeste 32 Nordeste 0 -- -- 53
2018-08-26 09:00:00 12.2 22 Nordeste 29 Nordeste 0 -- -- 65
2018-08-26 08:00:00 10.3 18 Nordeste 28 Nordeste 0 -- -- 70
2018-08-26 07:00:00 10.6 19 Nordeste 26 Nordeste 0 -- -- 68
2018-08-26 06:00:00 11.5 18 Nordeste 23 Nordeste 0 -- -- 64
2018-08-26 05:00:00 11.7 14 Nordeste 26 Nordeste 0 -- -- 61
2018-08-26 04:00:00 12.5 15 Nordeste 22 Nordeste 0 -- -- 58
2018-08-26 03:00:00 14 12 Nordeste 21 Nordeste 0 -- -- 55
2018-08-26 02:00:00 15.9 14 Nordeste 26 Norte 0 -- -- 41
2018-08-26 01:00:00 17.4 9 Nordeste 12 Nordeste 0 -- -- 29
2018-08-26 00:00:00 18.8 3 Nordeste 13 Este 0 -- -- 26
2018-08-25 23:00:00 18.7 6 Este 15 Este 0 -- -- 28
2018-08-25 22:00:00 19.8 10 Este 14 Este 0 -- -- 26
2018-08-25 21:00:00 22.9 9 Nordeste 14 Este 0 -- -- 19
2018-08-25 20:00:00 27.5 10 Este 22 Nordeste 0 -- -- 12
2018-08-25 19:00:00 29.1 5 Norte 18 Nordeste 0 -- -- 11
2018-08-25 18:00:00 28.5 4 Sudoeste 22 Nordeste 0 -- -- 15
2018-08-25 17:00:00 28 8 Norte 24 Este 0 -- -- 17
2018-08-25 16:00:00 27.1 15 Nordeste 26 Este 0 -- -- 19
2018-08-25 15:00:00 25.8 10 Nordeste 24 Nordeste 0 -- -- 24
2018-08-25 14:00:00 24.2 13 Nordeste 26 Nordeste 0 -- -- 29
2018-08-25 13:00:00 22.3 16 Nordeste 25 Nordeste 0 -- -- 35
2018-08-25 12:00:00 20.1 13 Este 28 Nordeste 0 -- -- 43
2018-08-25 11:00:00 17.3 19 Nordeste 31 Nordeste 0 -- -- 52
2018-08-25 10:00:00 14.8 17 Nordeste 29 Nordeste 0 -- -- 63
2018-08-25 09:00:00 11.9 16 Nordeste 22 Nordeste 0 -- -- 80
2018-08-25 08:00:00 10.3 14 Nordeste 19 Nordeste 0 -- -- 85
2018-08-25 07:00:00 11.1 17 Nordeste 26 Nordeste 0 -- -- 78
2018-08-25 06:00:00 11.4 17 Nordeste 25 Nordeste 0 -- -- 78
2018-08-25 05:00:00 12.5 17 Nordeste 24 Nordeste 0 -- -- 77
2018-08-25 04:00:00 13.3 15 Nordeste 26 Nordeste 0 -- -- 74
2018-08-25 03:00:00 14.3 16 Nordeste 22 Nordeste 0 -- -- 68
2018-08-25 02:00:00 15.8 14 Nordeste 22 Nordeste 0 -- -- 61
2018-08-25 01:00:00 18.1 15 Nordeste 25 Norte 0 -- -- 39
2018-08-25 00:00:00 18.5 12 Oeste 14 Oeste 0 -- -- 22
2018-08-24 23:00:00 20.5 6 Noroeste 10 Noroeste 0 -- -- 17
2018-08-24 22:00:00 23.2 9 Noroeste 11 Noroeste 0 -- -- 13
2018-08-24 21:00:00 25.8 8 Norte 29 Noroeste 0 -- -- 10
2018-08-24 20:00:00 29.1 17 Noroeste 45 Noroeste 0 -- -- 6
2018-08-24 19:00:00 30.3 19 Oeste 33 Noroeste 0 -- -- 7
2018-08-24 18:00:00 30.5 13 Noroeste 32 Noroeste 0 -- -- 10
2018-08-24 17:00:00 30.5 13 Noroeste 26 Noroeste 0 -- -- 12
2018-08-24 16:00:00 29.1 10 Noroeste 27 Noroeste 0 -- -- 15
2018-08-24 15:00:00 28.7 10 Norte 19 Norte 0 -- -- 17
2018-08-24 14:00:00 27 5 Oeste 20 Este 0 -- -- 22
2018-08-24 13:00:00 24.4 11 Nordeste 28 Nordeste 0 -- -- 34
2018-08-24 12:00:00 22.1 18 Nordeste 30 Nordeste 0 -- -- 45
2018-08-24 11:00:00 19.9 14 Nordeste 21 Nordeste 0 -- -- 54
2018-08-24 10:00:00 16.9 14 Este 22 Este 0 -- -- 66
2018-08-24 09:00:00 13.9 16 Nordeste 21 Nordeste 0 -- -- 85
2018-08-24 08:00:00 13.1 17 Nordeste 21 Nordeste 0 -- -- 88
2018-08-24 07:00:00 13.1 14 Nordeste 18 Nordeste 0 -- -- 88
2018-08-24 06:00:00 13.9 13 Nordeste 16 Nordeste 0 -- -- 80
2018-08-24 05:00:00 14.9 9 Nordeste 23 Nordeste 0 -- -- 74
2018-08-24 04:00:00 16.8 18 Nordeste 31 Nordeste 0 -- -- 67
2018-08-24 03:00:00 17.8 15 Nordeste 29 Nordeste 0 -- -- 62
2018-08-24 02:00:00 19.7 21 Nordeste 37 Nordeste 0 -- -- 55
2018-08-24 01:00:00 21 26 Nordeste 40 Nordeste 0 -- -- 47
2018-08-24 00:00:00 22.9 28 Nordeste 42 Nordeste 0 -- -- 40